Time;durP1;ratioP1;P1;durP2;ratioP2;P2;SDS_P1;SDS_P2;PMS_P1;PMS_P2;Temp;Humidity;BMP_temperature;BMP_pressure;BME280_temperature;BME280_humidity;BME280_pressure;Samples;Min_cycle;Max_cycle;Signal;HPM_P1;HPM_P2
2022/07/10 00:01:55;;;;;;;2.90;1.00;;;16.20;67.90;;;;;;2408930;52;21097;-73
2022/07/10 00:04:23;;;;;;;5.60;1.15;;;16.20;68.00;;;;;;2374436;56;21106;-73
2022/07/10 00:06:50;;;;;;;4.32;1.05;;;16.20;68.10;;;;;;2373788;56;21143;-73
2022/07/10 00:09:18;;;;;;;5.97;1.02;;;16.20;68.30;;;;;;2375990;56;21114;-73
2022/07/10 00:11:45;;;;;;;5.60;1.15;;;16.20;68.10;;;;;;2375326;56;21173;-73
2022/07/10 00:14:12;;;;;;;4.37;1.20;;;16.20;67.80;;;;;;2375391;56;21584;-73
2022/07/10 00:16:40;;;;;;;6.28;1.30;;;16.20;67.70;;;;;;2374815;56;21038;-73
2022/07/10 00:19:07;;;;;;;6.07;1.00;;;16.20;67.50;;;;;;2374190;56;21043;-73
2022/07/10 00:21:34;;;;;;;6.10;1.08;;;16.10;67.60;;;;;;2374630;56;21122;-73
2022/07/10 00:24:02;;;;;;;5.93;0.95;;;16.20;68.40;;;;;;2375796;56;21588;-73
2022/07/10 00:26:29;;;;;;;4.35;1.45;;;16.10;67.40;;;;;;2374708;56;21023;-73
2022/07/10 00:28:56;;;;;;;7.82;1.40;;;16.20;67.20;;;;;;2374709;56;21046;-73
2022/07/10 00:31:24;;;;;;;4.22;1.02;;;16.10;67.20;;;;;;2374113;56;21121;-75
2022/07/10 00:33:51;;;;;;;2.20;0.85;;;16.10;67.00;;;;;;2373949;56;21050;-75
2022/07/10 00:36:18;;;;;;;3.72;0.80;;;16.10;67.10;;;;;;2372886;56;21122;-75
2022/07/10 00:38:46;;;;;;;3.67;0.95;;;16.00;66.80;;;;;;2433176;52;21652;-75
2022/07/10 00:41:16;;;;;;;8.02;1.12;;;16.00;66.80;;;;;;2391019;52;21042;-75
2022/07/10 00:43:54;;;;;;;9.43;1.52;;;16.00;67.00;;;;;;2375724;56;21646;-75
2022/07/10 00:46:21;;;;;;;3.95;1.15;;;15.90;66.90;;;;;;2374517;56;21047;-75
2022/07/10 00:48:49;;;;;;;2.25;0.80;;;15.90;67.10;;;;;;2446919;52;21038;-75
2022/07/10 00:51:18;;;;;;;5.85;1.25;;;15.90;67.10;;;;;;2375403;56;21079;-75
2022/07/10 00:53:46;;;;;;;5.35;1.02;;;15.90;67.30;;;;;;2374351;56;21079;-75
2022/07/10 00:56:15;;;;;;;7.37;1.30;;;15.90;67.20;;;;;;2374927;56;21082;-75
2022/07/10 00:58:43;;;;;;;3.17;1.10;;;16.00;67.20;;;;;;2374894;56;21624;-75
2022/07/10 01:01:11;;;;;;;6.25;1.25;;;16.00;67.20;;;;;;2374768;56;21031;-75
2022/07/10 01:03:38;;;;;;;6.12;0.95;;;16.00;67.00;;;;;;2373299;56;21635;-75
2022/07/10 01:06:06;;;;;;;5.43;1.02;;;16.00;66.60;;;;;;2373680;56;21043;-75
2022/07/10 01:08:34;;;;;;;4.55;1.58;;;16.00;66.60;;;;;;2375115;56;21090;-75
2022/07/10 01:11:02;;;;;;;5.68;0.90;;;16.10;66.50;;;;;;2374123;56;21049;-75
2022/07/10 01:13:30;;;;;;;8.18;1.10;;;16.10;66.70;;;;;;2375011;56;21086;-75
2022/07/10 01:15:58;;;;;;;6.40;1.20;;;16.10;66.50;;;;;;2375228;56;21055;-75
2022/07/10 01:18:26;;;;;;;3.25;1.15;;;16.10;66.60;;;;;;2375551;56;21050;-75
2022/07/10 01:20:54;;;;;;;5.47;1.35;;;16.10;66.40;;;;;;2374976;56;21318;-75
2022/07/10 01:23:21;;;;;;;5.00;1.23;;;16.10;66.40;;;;;;2375322;56;21046;-75
2022/07/10 01:25:49;;;;;;;3.37;1.20;;;16.10;66.40;;;;;;2546987;52;21039;-75
2022/07/10 01:28:17;;;;;;;5.50;1.62;;;16.10;66.30;;;;;;2374519;56;21114;-72
2022/07/10 01:30:45;;;;;;;5.40;0.90;;;16.10;66.30;;;;;;2375064;56;21345;-73
2022/07/10 01:33:13;;;;;;;7.97;1.50;;;16.10;66.40;;;;;;2375356;56;21640;-73
2022/07/10 01:35:41;;;;;;;4.18;1.02;;;16.10;66.40;;;;;;2373923;56;21549;-73
2022/07/10 01:38:08;;;;;;;6.93;1.60;;;16.10;66.60;;;;;;2463809;52;21079;-73
2022/07/10 01:40:35;;;;;;;5.57;1.45;;;16.00;67.00;;;;;;2375878;56;21054;-73
2022/07/10 01:43:03;;;;;;;5.03;1.30;;;16.10;67.10;;;;;;2375056;56;21051;-73
2022/07/10 01:45:30;;;;;;;6.00;1.52;;;16.10;66.90;;;;;;2485765;52;21440;-73
2022/07/10 01:47:57;;;;;;;5.60;1.37;;;16.10;66.80;;;;;;2375206;56;21105;-73
2022/07/10 01:50:26;;;;;;;5.93;1.40;;;16.10;66.70;;;;;;2375550;56;21072;-73
2022/07/10 01:52:53;;;;;;;6.25;1.20;;;16.10;66.60;;;;;;2374885;56;21102;-73
2022/07/10 01:55:20;;;;;;;7.47;1.73;;;16.10;66.60;;;;;;2375157;56;21581;-73
2022/07/10 01:57:48;;;;;;;6.25;1.62;;;16.10;66.80;;;;;;2374329;56;21059;-72
2022/07/10 02:00:15;;;;;;;11.23;1.80;;;16.10;66.80;;;;;;2375197;56;21067;-73
2022/07/10 02:04:40;;;;;;;10.27;2.83;;;16.10;66.80;;;;;;2373957;56;21577;-73
2022/07/10 02:07:08;;;;;;;10.80;3.17;;;16.10;66.90;;;;;;2374212;56;21202;-74
2022/07/10 02:09:35;;;;;;;9.18;1.52;;;16.20;66.40;;;;;;2375292;56;21050;-75
2022/07/10 02:12:04;;;;;;;7.97;1.40;;;16.10;66.70;;;;;;2374206;56;21089;-75
2022/07/10 02:14:31;;;;;;;4.85;1.67;;;16.10;66.80;;;;;;2374540;56;21038;-75
2022/07/10 02:16:59;;;;;;;3.47;1.30;;;16.10;67.00;;;;;;2374786;56;21051;-75
2022/07/10 02:19:27;;;;;;;5.57;1.62;;;16.10;66.90;;;;;;2374331;54;21138;-75
2022/07/10 02:21:55;;;;;;;6.82;1.65;;;16.10;67.00;;;;;;2373381;56;21115;-75
2022/07/10 02:24:22;;;;;;;8.82;1.77;;;16.10;67.00;;;;;;2375298;56;21113;-75
2022/07/10 02:26:50;;;;;;;8.65;1.92;;;16.00;67.10;;;;;;2374784;56;21098;-75
2022/07/10 02:29:17;;;;;;;10.73;2.40;;;16.10;66.90;;;;;;2375591;56;21075;-75
2022/07/10 02:31:45;;;;;;;5.95;1.73;;;16.00;67.00;;;;;;2375657;56;21122;-75
2022/07/10 02:34:14;;;;;;;7.90;2.53;;;16.10;66.90;;;;;;2375201;56;21027;-75
2022/07/10 02:36:41;;;;;;;6.30;1.92;;;16.10;67.40;;;;;;2373124;56;21040;-75
2022/07/10 02:39:09;;;;;;;7.12;1.80;;;16.10;67.30;;;;;;2374498;56;21583;-75
2022/07/10 02:41:37;;;;;;;6.87;1.98;;;16.10;66.30;;;;;;2375129;56;21639;-75
2022/07/10 02:44:04;;;;;;;6.87;2.37;;;16.00;66.60;;;;;;2374690;56;21047;-75
2022/07/10 02:46:31;;;;;;;6.72;2.22;;;16.00;66.60;;;;;;2374863;56;21050;-75
2022/07/10 02:48:59;;;;;;;9.18;2.03;;;16.10;66.40;;;;;;2375651;56;21082;-75
2022/07/10 02:51:26;;;;;;;11.07;2.25;;;16.00;66.40;;;;;;2374846;56;21043;-75
2022/07/10 02:53:53;;;;;;;9.98;2.53;;;16.00;66.40;;;;;;2373529;56;21035;-75
2022/07/10 02:56:21;;;;;;;9.45;2.30;;;16.00;66.30;;;;;;2374295;56;21107;-75
2022/07/10 02:58:48;;;;;;;6.30;1.92;;;16.00;66.50;;;;;;2374813;56;21118;-75
2022/07/10 03:01:16;;;;;;;10.18;2.97;;;16.00;66.40;;;;;;2375299;56;21130;-75
2022/07/10 03:03:43;;;;;;;7.03;2.12;;;16.00;66.20;;;;;;2375193;56;21169;-75
2022/07/10 03:06:10;;;;;;;9.77;2.03;;;16.00;66.30;;;;;;2373683;56;21469;-75
2022/07/10 03:08:38;;;;;;;12.07;2.67;;;16.00;66.30;;;;;;2374973;56;21039;-75
2022/07/10 03:11:05;;;;;;;9.75;2.37;;;16.10;66.50;;;;;;2373483;56;21118;-76
2022/07/10 03:13:32;;;;;;;12.07;2.25;;;16.10;66.30;;;;;;2375243;56;21059;-75
2022/07/10 03:16:00;;;;;;;9.35;2.10;;;16.00;66.20;;;;;;2374897;56;21533;-73
2022/07/10 03:18:27;;;;;;;4.85;1.80;;;16.10;66.30;;;;;;2375273;56;21055;-72
2022/07/10 03:20:54;;;;;;;10.68;2.33;;;16.10;66.20;;;;;;2375206;56;21051;-73
2022/07/10 03:23:22;;;;;;;11.43;3.10;;;16.10;66.20;;;;;;2375156;56;21062;-73
2022/07/10 03:25:50;;;;;;;10.00;2.90;;;16.10;66.20;;;;;;2374909;56;21545;-73
2022/07/10 03:28:17;;;;;;;7.78;2.40;;;16.10;66.30;;;;;;2373807;56;21126;-73
2022/07/10 03:30:44;;;;;;;15.45;2.40;;;16.10;66.20;;;;;;2375314;56;21047;-73
2022/07/10 03:33:11;;;;;;;9.60;2.35;;;16.10;66.10;;;;;;2375063;56;21059;-73
2022/07/10 03:35:39;;;;;;;11.88;3.28;;;16.10;66.20;;;;;;2399281;52;21063;-73
2022/07/10 03:38:06;;;;;;;14.60;3.00;;;16.10;66.30;;;;;;2375456;56;21557;-73
2022/07/10 03:40:34;;;;;;;7.53;1.90;;;16.10;67.20;;;;;;2375471;56;21027;-73
2022/07/10 03:43:01;;;;;;;10.52;2.53;;;16.10;66.30;;;;;;2375173;56;21051;-73
2022/07/10 03:45:28;;;;;;;7.18;1.90;;;16.10;66.50;;;;;;2374357;56;21446;-73
2022/07/10 03:47:56;;;;;;;10.65;2.17;;;16.10;66.60;;;;;;2374079;56;21035;-73
2022/07/10 03:50:23;;;;;;;8.93;2.90;;;16.10;66.80;;;;;;2374593;56;21078;-73
2022/07/10 03:52:50;;;;;;;11.63;2.47;;;16.10;66.70;;;;;;2375126;56;21118;-73
2022/07/10 03:55:18;;;;;;;8.45;2.67;;;16.20;66.60;;;;;;2374994;56;21529;-73
2022/07/10 03:57:54;;;;;;;7.00;2.70;;;16.20;66.40;;;;;;2375885;56;21035;-73
2022/07/10 04:00:22;;;;;;;17.65;2.37;;;16.20;66.30;;;;;;2375341;56;21115;-73
2022/07/10 04:02:56;;;;;;;10.88;2.85;;;16.30;66.00;;;;;;2374796;56;21055;-73
2022/07/10 04:05:23;;;;;;;11.98;3.08;;;16.20;66.20;;;;;;2373369;56;21533;-73
2022/07/10 04:07:51;;;;;;;9.18;2.28;;;16.20;66.40;;;;;;2375340;56;21051;-72
2022/07/10 04:10:19;;;;;;;13.88;3.45;;;16.20;66.40;;;;;;2393319;52;21051;-72
2022/07/10 04:12:46;;;;;;;18.95;3.37;;;16.20;66.40;;;;;;2375306;56;21533;-73
2022/07/10 04:15:14;;;;;;;18.23;2.87;;;16.20;66.50;;;;;;2375267;56;21047;-73
2022/07/10 04:17:41;;;;;;;10.27;2.00;;;16.20;66.60;;;;;;2375597;56;21058;-73
2022/07/10 04:20:11;;;;;;;11.77;2.45;;;16.20;66.30;;;;;;2374327;56;22103;-73
2022/07/10 04:22:38;;;;;;;10.50;2.58;;;16.20;66.50;;;;;;2374328;56;21050;-73
2022/07/10 04:25:07;;;;;;;16.95;2.45;;;16.20;66.60;;;;;;2398943;52;21058;-73
2022/07/10 04:27:34;;;;;;;23.73;4.37;;;16.20;66.40;;;;;;2374788;56;21109;-73
2022/07/10 04:30:02;;;;;;;15.55;2.85;;;16.20;66.60;;;;;;2416852;52;21026;-76
2022/07/10 04:32:30;;;;;;;10.10;2.87;;;16.20;66.50;;;;;;2346042;57;21172;-75
2022/07/10 04:34:57;;;;;;;13.90;2.97;;;16.20;66.70;;;;;;2345687;57;21097;-76
2022/07/10 04:37:24;;;;;;;16.08;3.08;;;16.20;66.30;;;;;;2344945;57;21049;-76
2022/07/10 04:39:52;;;;;;;9.63;2.65;;;16.20;66.60;;;;;;2354719;56;21038;-75
2022/07/10 04:42:19;;;;;;;15.95;3.92;;;16.20;66.60;;;;;;2374096;56;21058;-76
2022/07/10 04:44:46;;;;;;;10.38;3.08;;;16.20;66.90;;;;;;2374042;56;21541;-75
2022/07/10 04:47:14;;;;;;;18.75;2.90;;;16.30;67.00;;;;;;2372558;56;21047;-75
2022/07/10 04:49:41;;;;;;;16.00;2.60;;;16.30;66.90;;;;;;2373070;56;21408;-75
2022/07/10 04:52:08;;;;;;;17.70;3.53;;;16.30;67.00;;;;;;2373963;56;21039;-76
2022/07/10 04:54:36;;;;;;;12.35;2.80;;;16.30;66.90;;;;;;2372447;56;21106;-76
2022/07/10 04:57:05;;;;;;;11.38;2.83;;;16.30;66.90;;;;;;2373118;56;21043;-76
2022/07/10 04:59:32;;;;;;;16.08;3.40;;;16.30;66.80;;;;;;2374122;56;21608;-76
2022/07/10 05:01:59;;;;;;;12.85;3.05;;;16.30;66.80;;;;;;2373110;56;21118;-76
2022/07/10 05:04:27;;;;;;;16.65;3.62;;;16.30;66.80;;;;;;2372461;56;21051;-76
2022/07/10 05:06:54;;;;;;;13.55;2.70;;;16.40;66.90;;;;;;2372504;56;21055;-75
2022/07/10 05:09:21;;;;;;;16.10;3.40;;;16.40;67.10;;;;;;2374216;56;21054;-76
2022/07/10 05:11:49;;;;;;;13.95;2.97;;;16.40;67.30;;;;;;2372913;56;21157;-76
2022/07/10 05:14:16;;;;;;;17.33;2.85;;;16.40;66.70;;;;;;2374416;56;21074;-76
2022/07/10 05:16:43;;;;;;;16.42;3.62;;;16.40;66.50;;;;;;2373403;56;21039;-76
2022/07/10 05:19:11;;;;;;;17.15;3.30;;;16.40;66.70;;;;;;2374195;56;21039;-76
2022/07/10 05:21:38;;;;;;;11.27;2.80;;;16.40;66.60;;;;;;2373683;56;21102;-76
2022/07/10 05:24:06;;;;;;;14.95;3.00;;;16.50;66.80;;;;;;2372800;56;21050;-76
2022/07/10 05:29:09;;;;;;;14.43;3.50;;;16.50;66.40;;;;;;2353920;57;22121;-75
2022/07/10 05:31:37;;;;;;;11.57;2.90;;;16.60;65.80;;;;;;2345698;57;21042;-75
2022/07/10 05:34:04;;;;;;;15.68;3.05;;;16.60;65.90;;;;;;2345437;57;21069;-75
2022/07/10 05:36:32;;;;;;;20.42;2.70;;;16.60;65.60;;;;;;2345128;57;21117;-76
2022/07/10 05:38:59;;;;;;;16.05;3.30;;;16.50;65.80;;;;;;2346417;57;21567;-78
2022/07/10 05:41:27;;;;;;;13.85;2.67;;;16.50;66.00;;;;;;2345536;57;21113;-75
2022/07/10 05:43:55;;;;;;;12.10;3.00;;;16.60;66.30;;;;;;2344978;57;21109;-75
2022/07/10 05:46:23;;;;;;;9.10;3.00;;;16.50;66.40;;;;;;2344979;57;21120;-75
2022/07/10 05:48:50;;;;;;;13.25;3.12;;;16.50;66.40;;;;;;2342801;57;21061;-74
2022/07/10 05:51:17;;;;;;;15.27;3.70;;;16.60;66.50;;;;;;2593078;52;21691;-75
2022/07/10 05:53:45;;;;;;;15.45;3.90;;;16.60;66.50;;;;;;2344765;57;21046;-75
2022/07/10 05:56:12;;;;;;;17.65;3.45;;;16.70;66.30;;;;;;2345188;57;21045;-75
2022/07/10 05:58:39;;;;;;;17.65;4.15;;;16.60;66.10;;;;;;2592524;53;21599;-75
2022/07/10 06:01:07;;;;;;;13.35;3.00;;;16.70;66.30;;;;;;2343903;57;21125;-75
2022/07/10 06:03:35;;;;;;;16.65;3.67;;;16.70;66.40;;;;;;2345427;57;21141;-75
2022/07/10 06:06:03;;;;;;;11.02;2.97;;;16.70;66.20;;;;;;2343649;57;21608;-75
2022/07/10 06:08:30;;;;;;;9.95;2.53;;;16.70;66.10;;;;;;2345159;57;21113;-74
2022/07/10 06:10:57;;;;;;;13.88;3.37;;;16.70;66.20;;;;;;2345322;57;21149;-75
2022/07/10 06:13:25;;;;;;;15.30;3.22;;;16.80;66.00;;;;;;2344725;57;21050;-75
2022/07/10 06:15:52;;;;;;;10.82;3.40;;;16.90;65.90;;;;;;2344347;57;21133;-75
2022/07/10 06:18:19;;;;;;;13.68;2.90;;;16.90;65.60;;;;;;2343291;57;21053;-75
2022/07/10 06:20:47;;;;;;;17.08;3.12;;;16.90;65.20;;;;;;2344046;57;21069;-76
2022/07/10 06:23:14;;;;;;;13.77;2.90;;;16.90;65.20;;;;;;2344402;57;21050;-76
2022/07/10 06:25:41;;;;;;;9.95;2.12;;;17.00;64.80;;;;;;2344047;57;21050;-75
2022/07/10 06:28:09;;;;;;;12.27;2.83;;;17.00;64.20;;;;;;2345172;57;21749;-75
2022/07/10 06:30:36;;;;;;;11.85;3.10;;;17.10;64.40;;;;;;2345851;57;21094;-75
2022/07/10 06:33:03;;;;;;;10.30;2.60;;;17.10;63.90;;;;;;2344067;57;21056;-74
2022/07/10 06:35:31;;;;;;;8.23;2.22;;;17.10;63.60;;;;;;2344607;57;21078;-74
2022/07/10 06:37:58;;;;;;;14.52;2.78;;;17.10;62.90;;;;;;2345642;57;21624;-74
2022/07/10 06:40:27;;;;;;;18.90;3.50;;;17.10;62.90;;;;;;2345597;57;21090;-74
2022/07/10 06:42:54;;;;;;;12.35;2.80;;;17.10;62.10;;;;;;2345008;57;21046;-76
2022/07/10 06:45:21;;;;;;;14.85;2.78;;;17.10;62.10;;;;;;2344402;57;21576;-76
2022/07/10 06:47:59;;;;;;;11.85;2.58;;;17.10;62.50;;;;;;2345879;57;21049;-76
2022/07/10 06:50:29;;;;;;;16.90;3.55;;;17.10;61.80;;;;;;2345180;57;21093;-76
2022/07/10 06:52:57;;;;;;;10.15;1.75;;;17.10;61.50;;;;;;2343898;57;21057;-75
2022/07/10 06:55:25;;;;;;;15.20;3.15;;;17.10;62.10;;;;;;2344549;57;21046;-75
2022/07/10 06:57:53;;;;;;;11.77;1.87;;;17.10;62.40;;;;;;2346004;57;21085;-75
2022/07/10 07:00:20;;;;;;;14.27;2.70;;;17.10;61.70;;;;;;2345913;57;21029;-75
2022/07/10 07:02:48;;;;;;;15.65;2.60;;;17.20;61.60;;;;;;2342398;57;21057;-75
2022/07/10 07:05:15;;;;;;;9.13;2.37;;;17.10;61.30;;;;;;2342801;57;21129;-75
2022/07/10 07:10:19;;;;;;;17.52;2.90;;;17.10;61.10;;;;;;2327139;57;22133;-76
2022/07/10 07:12:46;;;;;;;9.93;2.65;;;17.20;60.80;;;;;;2318847;58;21717;-75
2022/07/10 07:15:15;;;;;;;13.18;2.22;;;17.20;60.20;;;;;;2317970;58;21526;-76
2022/07/10 07:17:56;;;;;;;10.90;2.37;;;17.20;60.20;;;;;;2318409;58;21135;-76
2022/07/10 07:23:11;;;;;;;9.00;2.08;;;17.30;60.40;;;;;;2318924;58;21024;-76
2022/07/10 07:25:40;;;;;;;7.10;2.05;;;17.20;59.70;;;;;;2318851;58;21128;-76
2022/07/10 07:28:07;;;;;;;9.82;2.33;;;17.20;59.60;;;;;;2318965;58;21060;-76
2022/07/10 07:30:36;;;;;;;13.05;2.62;;;17.20;59.70;;;;;;2319145;58;21084;-76
2022/07/10 07:33:03;;;;;;;8.25;1.77;;;17.20;59.20;;;;;;2316276;58;21064;-76
2022/07/10 07:35:31;;;;;;;7.62;2.15;;;17.20;59.60;;;;;;2318214;58;21060;-76
2022/07/10 07:37:58;;;;;;;12.30;1.80;;;17.20;59.10;;;;;;2316239;58;21618;-77
2022/07/10 07:40:25;;;;;;;15.70;2.40;;;17.10;59.20;;;;;;2318172;58;21119;-77
2022/07/10 07:42:54;;;;;;;13.45;2.72;;;17.10;58.90;;;;;;2560653;53;21146;-76
2022/07/10 07:45:21;;;;;;;13.68;2.42;;;17.00;58.50;;;;;;2318800;58;21036;-77
2022/07/10 07:47:50;;;;;;;8.88;1.60;;;17.10;59.20;;;;;;2318654;58;21088;-77
2022/07/10 07:50:19;;;;;;;12.80;1.85;;;17.10;59.40;;;;;;2318812;58;21048;-77
2022/07/10 07:52:48;;;;;;;7.47;2.17;;;17.20;57.60;;;;;;2558864;54;21076;-76
2022/07/10 07:55:16;;;;;;;9.77;2.55;;;17.20;57.20;;;;;;2557306;54;21450;-76
2022/07/10 07:57:44;;;;;;;4.55;1.65;;;17.30;57.00;;;;;;2560496;53;21071;-77
2022/07/10 08:00:14;;;;;;;8.82;1.95;;;17.30;56.90;;;;;;2319337;58;21068;-76
2022/07/10 08:02:42;;;;;;;9.40;1.95;;;17.40;57.60;;;;;;2318637;58;21060;-77
2022/07/10 08:05:10;;;;;;;5.80;1.15;;;17.50;57.30;;;;;;2315556;58;21090;-76
2022/07/10 08:07:39;;;;;;;6.95;1.42;;;17.60;56.60;;;;;;2313628;58;21219;-77
2022/07/10 08:10:09;;;;;;;8.13;1.70;;;17.70;56.10;;;;;;2316251;58;21187;-76
2022/07/10 08:12:38;;;;;;;7.15;1.62;;;17.80;55.80;;;;;;2318685;58;21049;-76
2022/07/10 08:15:09;;;;;;;6.12;1.67;;;17.90;55.70;;;;;;2318707;58;21072;-77
2022/07/10 08:17:37;;;;;;;13.70;2.33;;;17.90;54.50;;;;;;2318712;58;21064;-76
2022/07/10 08:20:07;;;;;;;6.35;1.65;;;17.90;54.40;;;;;;2317824;58;21139;-77
2022/07/10 08:22:35;;;;;;;10.38;1.80;;;17.90;54.20;;;;;;2316857;58;21055;-77
2022/07/10 08:25:03;;;;;;;4.72;1.50;;;17.90;53.90;;;;;;2315839;58;21562;-76
2022/07/10 08:27:30;;;;;;;7.62;1.35;;;17.90;53.90;;;;;;2317115;58;21123;-76
2022/07/10 08:29:58;;;;;;;6.93;1.40;;;17.90;53.90;;;;;;2316787;58;21116;-77
2022/07/10 08:32:27;;;;;;;6.50;1.60;;;17.90;54.00;;;;;;2316049;58;21056;-76
2022/07/10 08:34:54;;;;;;;12.75;2.47;;;17.80;54.30;;;;;;2316813;58;21551;-76
2022/07/10 08:37:22;;;;;;;7.68;1.90;;;17.90;54.50;;;;;;2315701;58;21068;-77
2022/07/10 08:39:50;;;;;;;7.15;1.60;;;18.00;54.20;;;;;;2317544;58;21100;-76
2022/07/10 08:42:18;;;;;;;6.03;1.50;;;18.00;54.00;;;;;;2316209;58;21048;-76
2022/07/10 08:44:46;;;;;;;10.45;1.70;;;18.10;53.50;;;;;;2317475;58;21533;-77
2022/07/10 08:47:14;;;;;;;4.43;1.23;;;18.10;53.20;;;;;;2557167;54;21123;-76
2022/07/10 08:52:31;;;;;;;8.50;1.30;;;18.10;51.90;;;;;;2323473;57;22578;-77
2022/07/10 08:54:58;;;;;;;4.68;1.33;;;18.10;51.60;;;;;;2343731;57;21097;-78
2022/07/10 08:57:27;;;;;;;10.05;2.05;;;18.20;52.00;;;;;;2344299;57;22024;-76
2022/07/10 08:59:54;;;;;;;12.15;1.77;;;18.20;52.20;;;;;;2354334;56;21038;-76
2022/07/10 09:02:21;;;;;;;11.45;1.70;;;18.20;52.20;;;;;;2371115;56;21051;-77
2022/07/10 09:04:49;;;;;;;8.52;1.23;;;18.20;53.00;;;;;;2370912;56;21364;-78
2022/07/10 09:07:17;;;;;;;6.25;1.40;;;18.30;52.80;;;;;;2373245;56;21039;-76
2022/07/10 09:09:55;;;;;;;5.80;1.92;;;18.30;52.90;;;;;;2371962;56;21095;-77
2022/07/10 09:12:22;;;;;;;3.78;1.15;;;18.30;52.00;;;;;;2372177;56;21126;-76
2022/07/10 09:14:50;;;;;;;9.00;1.80;;;18.30;52.40;;;;;;2372375;56;21050;-77
2022/07/10 09:17:18;;;;;;;9.88;1.87;;;18.40;51.90;;;;;;2373490;56;21146;-77
2022/07/10 09:19:46;;;;;;;7.53;1.33;;;18.40;52.20;;;;;;2374185;56;21043;-77
2022/07/10 09:22:14;;;;;;;11.38;2.12;;;18.40;51.90;;;;;;2371648;56;21030;-77
2022/07/10 09:24:43;;;;;;;5.97;1.40;;;18.40;51.90;;;;;;2373707;56;21047;-77
2022/07/10 09:27:12;;;;;;;6.82;1.50;;;18.50;52.10;;;;;;2372657;56;21055;-77
2022/07/10 09:29:47;;;;;;;10.35;1.87;;;18.50;51.90;;;;;;2373590;56;21118;-76
2022/07/10 09:32:16;;;;;;;6.47;1.10;;;18.40;50.20;;;;;;2373352;56;21117;-77
2022/07/10 09:34:45;;;;;;;10.07;1.87;;;18.50;50.60;;;;;;2372237;56;21042;-79
2022/07/10 09:37:20;;;;;;;13.65;1.80;;;18.50;51.00;;;;;;2372405;56;21205;-77
2022/07/10 09:39:58;;;;;;;9.07;1.70;;;18.60;52.30;;;;;;2373185;56;21097;-78
2022/07/10 09:42:27;;;;;;;10.52;2.28;;;18.70;52.70;;;;;;2373821;56;21518;-78
2022/07/10 09:45:17;;;;;;;11.75;1.50;;;18.70;51.70;;;;;;2374711;56;21043;-78
2022/07/10 09:47:46;;;;;;;9.35;1.80;;;18.70;51.50;;;;;;2374973;56;21036;-77
2022/07/10 09:50:29;;;;;;;4.85;1.30;;;18.80;51.70;;;;;;2373855;56;21118;-77
2022/07/10 09:52:57;;;;;;;9.27;2.20;;;18.90;51.30;;;;;;2628040;52;21640;-77
2022/07/10 09:55:26;;;;;;;10.32;2.10;;;19.00;50.60;;;;;;2347998;56;21094;-76
2022/07/10 09:57:58;;;;;;;4.60;1.70;;;18.90;49.70;;;;;;2627947;52;22086;-76
2022/07/10 10:00:28;;;;;;;9.55;1.55;;;19.10;49.70;;;;;;2374613;56;21102;-76
2022/07/10 10:02:59;;;;;;;7.70;1.60;;;19.00;49.60;;;;;;2374320;56;21135;-77
2022/07/10 10:05:39;;;;;;;5.20;1.17;;;19.00;50.60;;;;;;2373213;56;21094;-76
2022/07/10 10:08:12;;;;;;;5.45;1.40;;;19.10;50.80;;;;;;2373498;56;21089;-77
2022/07/10 10:10:44;;;;;;;9.65;1.52;;;19.20;50.90;;;;;;2372936;56;21047;-76
2022/07/10 10:13:14;;;;;;;10.48;2.08;;;19.30;50.70;;;;;;2373640;56;21042;-76
2022/07/10 10:15:44;;;;;;;6.47;1.95;;;19.30;49.80;;;;;;2373449;56;21165;-78
2022/07/10 10:18:12;;;;;;;11.07;2.10;;;19.30;49.60;;;;;;2372521;56;21098;-77
2022/07/10 10:20:45;;;;;;;10.82;1.98;;;19.30;48.60;;;;;;2373198;56;21135;-77
2022/07/10 10:23:17;;;;;;;11.35;1.45;;;19.40;49.50;;;;;;2373199;56;21050;-77
2022/07/10 10:25:44;;;;;;;7.82;2.00;;;19.40;50.30;;;;;;2372859;56;21039;-77
2022/07/10 10:28:13;;;;;;;10.32;1.58;;;19.40;50.30;;;;;;2373669;56;21130;-77
2022/07/10 10:30:43;;;;;;;5.37;1.70;;;19.40;50.50;;;;;;2431586;53;21528;-72
2022/07/10 10:33:51;;;;;;;7.25;1.60;;;19.50;50.70;;;;;;2363762;56;21054;-72
2022/07/10 10:36:46;;;;;;;7.28;1.40;;;19.50;50.40;;;;;;2384508;53;21219;-73
2022/07/10 10:39:16;;;;;;;7.45;2.08;;;19.50;49.50;;;;;;2365247;56;21050;-73
2022/07/10 10:41:48;;;;;;;6.35;1.52;;;19.40;49.90;;;;;;2365882;56;21102;-73
2022/07/10 10:44:31;;;;;;;8.73;1.90;;;19.50;49.80;;;;;;2364730;56;21594;-72
2022/07/10 10:47:07;;;;;;;5.20;1.40;;;19.50;49.30;;;;;;2365094;56;21156;-72
2022/07/10 10:49:58;;;;;;;6.82;1.87;;;19.50;49.00;;;;;;2365506;56;21058;-72
2022/07/10 10:52:26;;;;;;;4.43;1.90;;;19.50;48.70;;;;;;2365264;56;21062;-72
2022/07/10 10:55:08;;;;;;;6.55;1.70;;;19.50;48.60;;;;;;2365147;56;21097;-71
2022/07/10 10:57:48;;;;;;;6.43;1.50;;;19.50;49.00;;;;;;2364130;56;21046;-75
2022/07/10 11:00:35;;;;;;;5.97;1.08;;;19.60;49.70;;;;;;2363553;56;21066;-74
2022/07/10 11:03:24;;;;;;;9.40;1.45;;;19.70;50.30;;;;;;2363586;56;21122;-75
2022/07/10 11:05:52;;;;;;;5.15;1.40;;;19.80;49.50;;;;;;2363515;56;21071;-75
2022/07/10 11:08:43;;;;;;;12.82;1.80;;;20.00;48.30;;;;;;2364195;54;21571;-74
2022/07/10 11:11:41;;;;;;;7.82;1.65;;;20.20;48.00;;;;;;2364477;56;21070;-75
2022/07/10 11:14:10;;;;;;;7.15;1.30;;;20.20;48.30;;;;;;2364296;56;21074;-76
2022/07/10 11:16:49;;;;;;;6.32;1.52;;;20.20;48.00;;;;;;2362781;56;21043;-74
2022/07/10 11:19:22;;;;;;;5.37;1.37;;;20.30;48.10;;;;;;2363557;56;21113;-75
2022/07/10 11:22:10;;;;;;;5.20;1.60;;;20.40;47.10;;;;;;2392892;53;21102;-76
2022/07/10 11:24:48;;;;;;;7.20;2.22;;;20.50;47.90;;;;;;2366338;53;21129;-76
2022/07/10 11:27:30;;;;;;;3.33;1.00;;;20.60;46.50;;;;;;2363985;56;21133;-74
2022/07/10 11:30:01;;;;;;;6.60;1.35;;;20.70;45.70;;;;;;2376986;53;21042;-75
2022/07/10 11:32:29;;;;;;;4.30;1.37;;;20.70;46.00;;;;;;2363399;56;21106;-75
2022/07/10 11:34:57;;;;;;;4.10;0.95;;;20.80;46.10;;;;;;2381676;53;21122;-75
2022/07/10 11:37:29;;;;;;;7.03;1.60;;;20.90;45.90;;;;;;2396901;53;21052;-75
2022/07/10 11:40:11;;;;;;;10.98;1.50;;;20.90;45.70;;;;;;2363935;56;21153;-76
2022/07/10 11:42:50;;;;;;;5.87;1.20;;;20.90;45.60;;;;;;2364489;56;21043;-71
2022/07/10 11:45:29;;;;;;;3.58;1.27;;;20.90;44.80;;;;;;2364099;56;21086;-73
2022/07/10 11:47:57;;;;;;;4.07;1.15;;;20.80;44.70;;;;;;2363291;56;21267;-71
2022/07/10 11:50:26;;;;;;;4.62;1.75;;;20.80;44.90;;;;;;2465384;53;21134;-71
2022/07/10 11:52:54;;;;;;;4.65;1.10;;;20.90;45.80;;;;;;2364030;56;21612;-72
2022/07/10 11:55:23;;;;;;;4.87;1.20;;;21.00;46.00;;;;;;2363924;56;21137;-71
2022/07/10 11:57:52;;;;;;;5.72;1.33;;;21.10;46.00;;;;;;2363114;56;21160;-71
2022/07/10 12:00:24;;;;;;;6.35;1.20;;;21.00;45.10;;;;;;2363869;56;21075;-72
2022/07/10 12:02:51;;;;;;;8.20;1.45;;;21.00;45.60;;;;;;2363538;56;21110;-72
2022/07/10 12:05:33;;;;;;;7.30;1.10;;;21.00;46.40;;;;;;2361257;56;21162;-71
2022/07/10 12:08:01;;;;;;;8.15;1.65;;;21.10;46.20;;;;;;2364739;56;21046;-71
2022/07/10 12:10:28;;;;;;;10.13;1.80;;;21.10;45.80;;;;;;2391375;53;21129;-71
2022/07/10 12:13:04;;;;;;;5.10;1.35;;;21.00;46.10;;;;;;2372983;53;21608;-71
2022/07/10 12:15:39;;;;;;;6.90;1.42;;;20.90;45.60;;;;;;2363283;56;21561;-71
2022/07/10 12:18:07;;;;;;;6.60;1.42;;;20.90;45.30;;;;;;2363693;56;21053;-72
2022/07/10 12:20:35;;;;;;;6.43;1.50;;;20.90;45.30;;;;;;2364465;56;21094;-72
2022/07/10 12:23:03;;;;;;;9.00;1.45;;;20.90;45.70;;;;;;2364390;56;21086;-71
2022/07/10 12:25:30;;;;;;;6.43;1.42;;;20.80;46.50;;;;;;2364130;56;21046;-71
2022/07/10 12:27:58;;;;;;;6.22;1.33;;;20.80;46.10;;;;;;2365251;56;21067;-72
2022/07/10 12:30:40;;;;;;;6.10;1.55;;;20.80;46.30;;;;;;2363483;56;21125;-72
2022/07/10 12:33:16;;;;;;;7.97;1.67;;;20.80;46.80;;;;;;2375790;53;21054;-73
2022/07/10 12:35:51;;;;;;;5.80;1.33;;;20.70;47.10;;;;;;2363542;56;21034;-73
2022/07/10 12:38:20;;;;;;;8.98;2.25;;;20.80;47.30;;;;;;2386677;53;21094;-72
2022/07/10 12:40:49;;;;;;;6.70;1.20;;;20.80;47.10;;;;;;2363846;57;21110;-75
2022/07/10 12:43:27;;;;;;;5.15;1.60;;;20.70;47.20;;;;;;2364132;56;21082;-72
2022/07/10 12:46:15;;;;;;;4.12;1.17;;;20.60;47.70;;;;;;2363094;56;21148;-72
2022/07/10 12:48:44;;;;;;;6.45;1.25;;;20.70;47.80;;;;;;2363787;56;21066;-72
2022/07/10 12:51:31;;;;;;;6.78;1.50;;;20.70;47.90;;;;;;2364328;56;21062;-72
2022/07/10 12:54:00;;;;;;;7.62;1.70;;;20.70;47.30;;;;;;2364480;56;21624;-73
2022/07/10 12:56:33;;;;;;;8.80;1.92;;;20.80;47.60;;;;;;2362420;57;21050;-72
2022/07/10 12:59:01;;;;;;;7.22;1.87;;;20.60;47.30;;;;;;2363724;57;21054;-74
2022/07/10 13:01:39;;;;;;;3.97;1.15;;;20.50;47.90;;;;;;2363238;56;21084;-71
2022/07/10 13:04:09;;;;;;;10.95;1.50;;;20.50;48.50;;;;;;2381323;53;21133;-71
2022/07/10 13:06:37;;;;;;;6.50;1.83;;;20.40;48.00;;;;;;2365479;53;21184;-71
2022/07/10 13:09:20;;;;;;;5.93;1.73;;;20.50;48.00;;;;;;2365125;53;21042;-72